Time;durP1;ratioP1;P1;durP2;ratioP2;P2;SDS_P1;SDS_P2;PMS_P1;PMS_P2;Temp;Humidity;BMP_temperature;BMP_pressure;BME280_temperature;BME280_humidity;BME280_pressure;Samples;Min_cycle;Max_cycle;Signal;HPM_P1;HPM_P2
2021/07/12 00:02:11;;;;;;;2.55;0.70;;;14.80;73.10;;;;;;5011971;28;20018;-66
2021/07/12 00:04:38;;;;;;;3.05;0.80;;;14.80;73.80;;;;;;5013244;28;20026;-66
2021/07/12 00:07:04;;;;;;;3.50;0.90;;;14.80;73.30;;;;;;5011085;28;20022;-66
2021/07/12 00:09:31;;;;;;;2.88;0.90;;;14.80;73.20;;;;;;5012768;28;20053;-67
2021/07/12 00:11:57;;;;;;;1.27;0.68;;;14.80;73.10;;;;;;5012627;28;20112;-66
2021/07/12 00:14:24;;;;;;;3.28;0.63;;;14.80;73.20;;;;;;5012400;28;20087;-66
2021/07/12 00:16:50;;;;;;;1.45;0.70;;;14.80;73.10;;;;;;5016016;28;20022;-66
2021/07/12 00:19:17;;;;;;;1.40;0.50;;;14.80;73.00;;;;;;5011880;28;20117;-66
2021/07/12 00:21:43;;;;;;;6.93;2.97;;;14.80;73.10;;;;;;5012857;28;20030;-67
2021/07/12 00:24:10;;;;;;;4.55;0.68;;;14.80;73.20;;;;;;5011074;28;20095;-67
2021/07/12 00:26:36;;;;;;;3.88;0.57;;;14.70;73.20;;;;;;5014873;28;20087;-67
2021/07/12 00:29:03;;;;;;;2.15;1.05;;;14.80;73.30;;;;;;5010582;28;20030;-66
2021/07/12 00:31:30;;;;;;;3.35;0.93;;;14.80;73.30;;;;;;5011762;28;20037;-66
2021/07/12 00:33:56;;;;;;;2.20;0.85;;;14.80;73.40;;;;;;5011799;28;20373;-67
2021/07/12 00:36:22;;;;;;;3.90;0.90;;;14.70;73.40;;;;;;5013238;28;20366;-67
2021/07/12 00:38:49;;;;;;;2.55;1.20;;;14.80;73.40;;;;;;5011579;28;20463;-67
2021/07/12 00:41:15;;;;;;;1.92;0.80;;;14.80;73.40;;;;;;5013953;28;20040;-66
2021/07/12 00:43:42;;;;;;;5.22;1.33;;;14.80;73.50;;;;;;5012161;28;20034;-66
2021/07/12 00:46:08;;;;;;;2.95;1.15;;;14.70;73.50;;;;;;5010436;28;20018;-66
2021/07/12 00:48:35;;;;;;;2.55;1.08;;;14.70;74.20;;;;;;5011260;28;20507;-66
2021/07/12 00:51:02;;;;;;;5.05;0.90;;;14.70;73.50;;;;;;5010234;28;20492;-65
2021/07/12 00:53:29;;;;;;;3.42;1.38;;;14.70;73.60;;;;;;5011754;28;20543;-67
2021/07/12 00:55:55;;;;;;;3.53;1.55;;;14.70;73.70;;;;;;5011579;28;20111;-67
2021/07/12 00:58:24;;;;;;;4.22;1.25;;;14.70;73.80;;;;;;5011393;28;20018;-66
2021/07/12 01:00:57;;;;;;;1.92;1.23;;;14.70;73.80;;;;;;5011887;28;20447;-67
2021/07/12 01:03:24;;;;;;;1.35;0.93;;;14.70;73.90;;;;;;5010624;28;20077;-67
2021/07/12 01:05:52;;;;;;;2.38;1.73;;;14.70;73.90;;;;;;5010697;28;20014;-67
2021/07/12 01:08:19;;;;;;;3.70;1.50;;;14.70;74.00;;;;;;5013862;28;20485;-67
2021/07/12 01:11:04;;;;;;;2.63;1.60;;;14.70;73.80;;;;;;5011180;28;20029;-66
2021/07/12 01:13:37;;;;;;;2.28;0.98;;;14.70;73.80;;;;;;5012391;28;20109;-66
2021/07/12 01:16:25;;;;;;;3.25;1.92;;;14.80;73.90;;;;;;5009670;28;20496;-67
2021/07/12 01:19:28;;;;;;;2.72;1.55;;;14.70;73.90;;;;;;5011304;28;20046;-67
2021/07/12 01:22:19;;;;;;;3.60;1.10;;;14.70;73.80;;;;;;5008482;28;20032;-66
2021/07/12 01:25:18;;;;;;;2.45;1.45;;;14.70;73.80;;;;;;5008790;28;20025;-67
2021/07/12 01:28:18;;;;;;;3.15;1.95;;;14.70;73.70;;;;;;5011594;28;20049;-66
2021/07/12 01:30:51;;;;;;;2.90;1.42;;;14.70;73.70;;;;;;5022284;28;20393;-66
2021/07/12 01:33:22;;;;;;;3.00;1.40;;;14.60;73.70;;;;;;5010374;28;20117;-67
2021/07/12 01:35:54;;;;;;;2.83;1.52;;;14.60;73.60;;;;;;5010578;28;20111;-66
2021/07/12 01:38:51;;;;;;;2.50;1.77;;;14.60;73.70;;;;;;5010317;28;20030;-67
2021/07/12 01:41:47;;;;;;;3.28;1.30;;;14.60;73.60;;;;;;5009121;28;20081;-66
2021/07/12 01:44:57;;;;;;;3.17;0.98;;;14.60;73.60;;;;;;5010937;28;20045;-67
2021/07/12 01:48:09;;;;;;;2.85;1.10;;;14.50;73.40;;;;;;5008012;28;20029;-67
2021/07/12 01:51:01;;;;;;;4.20;1.30;;;14.60;73.40;;;;;;5010094;28;20053;-67
2021/07/12 01:54:01;;;;;;;1.60;1.20;;;14.50;73.40;;;;;;5010820;28;20425;-67
2021/07/12 01:56:51;;;;;;;1.80;1.05;;;14.50;73.40;;;;;;5010218;28;20022;-66
2021/07/12 01:59:27;;;;;;;3.67;1.25;;;14.50;73.30;;;;;;5007889;28;20013;-66
2021/07/12 02:01:55;;;;;;;3.33;1.77;;;14.50;73.30;;;;;;5009778;28;20030;-66
2021/07/12 02:04:28;;;;;;;1.30;1.20;;;14.50;73.30;;;;;;5010013;28;20098;-66
2021/07/12 02:06:57;;;;;;;2.13;1.40;;;14.50;73.40;;;;;;5009994;28;20022;-66
2021/07/12 02:09:25;;;;;;;4.63;1.33;;;14.50;73.40;;;;;;5009955;28;20428;-67
2021/07/12 02:11:55;;;;;;;3.33;1.00;;;14.50;73.40;;;;;;5010729;28;20508;-66
2021/07/12 02:14:23;;;;;;;3.38;1.05;;;14.50;73.40;;;;;;5011075;28;20380;-66
2021/07/12 02:16:51;;;;;;;4.68;1.33;;;14.50;73.40;;;;;;5008339;28;20030;-66
2021/07/12 02:19:19;;;;;;;3.72;1.88;;;14.50;73.40;;;;;;5007389;28;20353;-66
2021/07/12 02:21:49;;;;;;;3.60;1.00;;;14.40;73.30;;;;;;5010723;28;20030;-66
2021/07/12 02:24:20;;;;;;;3.72;0.93;;;14.40;73.40;;;;;;5009403;28;20026;-67
2021/07/12 02:26:48;;;;;;;3.90;0.90;;;14.40;73.40;;;;;;5009211;28;20433;-66
2021/07/12 02:29:16;;;;;;;2.70;0.90;;;14.40;73.40;;;;;;5006829;28;20021;-66
2021/07/12 02:31:44;;;;;;;2.55;0.90;;;14.40;73.40;;;;;;5010852;28;20101;-67
2021/07/12 02:34:11;;;;;;;3.25;1.05;;;14.40;73.40;;;;;;5009204;28;20014;-65
2021/07/12 02:36:38;;;;;;;1.23;0.80;;;14.40;73.30;;;;;;5003785;28;20045;-66
2021/07/12 02:39:10;;;;;;;6.93;0.82;;;14.40;73.30;;;;;;5008258;28;20026;-66
2021/07/12 02:41:37;;;;;;;4.07;1.00;;;14.40;73.30;;;;;;5009959;28;20052;-66
2021/07/12 02:44:07;;;;;;;2.33;0.68;;;14.40;73.30;;;;;;5006096;28;20412;-66
2021/07/12 02:46:34;;;;;;;4.43;1.20;;;14.40;73.30;;;;;;5008227;28;20076;-65
2021/07/12 02:49:01;;;;;;;2.47;0.80;;;14.40;73.30;;;;;;5009355;28;20109;-66
2021/07/12 02:51:34;;;;;;;3.95;1.38;;;14.40;73.40;;;;;;5009622;28;20048;-66
2021/07/12 02:54:04;;;;;;;2.08;1.10;;;14.30;73.40;;;;;;5009319;28;20044;-67
2021/07/12 02:56:32;;;;;;;2.63;0.95;;;14.30;73.60;;;;;;5012604;28;20096;-66
2021/07/12 02:58:59;;;;;;;2.15;1.13;;;14.30;73.60;;;;;;5009302;28;20022;-66
2021/07/12 03:01:25;;;;;;;3.25;0.73;;;14.30;73.60;;;;;;5009664;28;20757;-66
2021/07/12 03:03:54;;;;;;;3.30;1.33;;;14.30;73.60;;;;;;5013694;28;20101;-66
2021/07/12 03:06:26;;;;;;;3.85;1.58;;;14.30;73.80;;;;;;5009661;28;20018;-66
2021/07/12 03:09:05;;;;;;;2.20;1.15;;;14.40;73.90;;;;;;5007568;28;20042;-66
2021/07/12 03:11:54;;;;;;;2.40;1.08;;;14.30;73.90;;;;;;5010042;28;20131;-66
2021/07/12 03:14:32;;;;;;;3.35;1.27;;;14.30;74.00;;;;;;5010332;28;20014;-66
2021/07/12 03:17:00;;;;;;;4.63;1.80;;;14.30;74.00;;;;;;5007163;28;20113;-66
2021/07/12 03:19:32;;;;;;;3.40;1.10;;;14.30;74.00;;;;;;5010596;28;20061;-66
2021/07/12 03:22:01;;;;;;;2.67;1.33;;;14.30;74.20;;;;;;5008738;28;20018;-67
2021/07/12 03:24:30;;;;;;;1.35;0.93;;;14.30;74.20;;;;;;5009073;28;20014;-66
2021/07/12 03:26:59;;;;;;;2.42;1.02;;;14.30;74.40;;;;;;5007880;28;20372;-66
2021/07/12 03:29:30;;;;;;;4.72;1.33;;;14.30;74.40;;;;;;5010511;28;20057;-66
2021/07/12 03:32:02;;;;;;;4.43;1.67;;;14.30;74.40;;;;;;5012654;28;20061;-66
2021/07/12 03:34:30;;;;;;;1.08;0.65;;;14.30;74.40;;;;;;5013228;28;21480;-65
2021/07/12 03:36:58;;;;;;;3.22;1.08;;;14.30;74.40;;;;;;5013742;28;20022;-66
2021/07/12 03:39:26;;;;;;;3.47;0.95;;;14.30;74.40;;;;;;5012804;28;20030;-66
2021/07/12 03:41:54;;;;;;;3.00;0.95;;;14.30;74.40;;;;;;5013911;28;20038;-66
2021/07/12 03:44:20;;;;;;;1.48;0.80;;;14.30;74.30;;;;;;5012449;28;20020;-66
2021/07/12 03:46:47;;;;;;;1.77;0.95;;;14.30;74.40;;;;;;5013172;28;20663;-66
2021/07/12 03:49:16;;;;;;;3.75;0.73;;;14.30;74.50;;;;;;5014672;28;20412;-66
2021/07/12 03:51:47;;;;;;;3.40;0.80;;;14.30;74.50;;;;;;5014687;28;20790;-67
2021/07/12 03:54:15;;;;;;;3.38;1.25;;;14.30;74.50;;;;;;5013497;28;20014;-66
2021/07/12 03:56:42;;;;;;;1.38;0.88;;;14.30;74.60;;;;;;5012596;28;20026;-66
2021/07/12 03:59:08;;;;;;;1.52;0.80;;;14.30;74.50;;;;;;5012712;28;20022;-66
2021/07/12 04:01:35;;;;;;;3.05;0.70;;;14.30;74.60;;;;;;5011135;28;20477;-66
2021/07/12 04:04:02;;;;;;;2.63;0.50;;;14.30;74.50;;;;;;5010847;28;20037;-66
2021/07/12 04:06:31;;;;;;;1.60;0.70;;;14.30;74.50;;;;;;5011789;28;20026;-66
2021/07/12 04:08:58;;;;;;;1.55;0.80;;;14.30;74.60;;;;;;5011088;28;20057;-66
2021/07/12 04:11:34;;;;;;;3.05;0.68;;;14.30;74.70;;;;;;5012255;28;20029;-67
2021/07/12 04:14:02;;;;;;;3.90;1.15;;;14.30;74.80;;;;;;5009198;28;20030;-66
2021/07/12 04:16:29;;;;;;;2.35;0.70;;;14.30;74.80;;;;;;5013501;28;20030;-66
2021/07/12 04:18:55;;;;;;;1.20;0.68;;;14.30;74.80;;;;;;5011692;28;20037;-66
2021/07/12 04:21:22;;;;;;;0.95;0.60;;;14.30;74.80;;;;;;5012766;28;20052;-66
2021/07/12 04:23:49;;;;;;;1.25;0.80;;;14.30;74.90;;;;;;5013368;28;20028;-66
2021/07/12 04:26:15;;;;;;;5.00;1.45;;;14.20;74.80;;;;;;5012259;28;20022;-66
2021/07/12 04:28:42;;;;;;;0.95;0.50;;;14.30;75.00;;;;;;5011544;28;20022;-66
2021/07/12 04:31:13;;;;;;;0.88;0.40;;;14.30;75.00;;;;;;5011233;28;20018;-66
2021/07/12 04:33:39;;;;;;;3.55;1.10;;;14.30;74.90;;;;;;5012346;28;20034;-64
2021/07/12 04:36:06;;;;;;;11.95;2.55;;;14.30;75.00;;;;;;5011134;28;20037;-65
2021/07/12 04:38:32;;;;;;;6.93;2.60;;;14.20;74.90;;;;;;5014533;28;20033;-66
2021/07/12 04:40:59;;;;;;;3.33;1.65;;;14.30;74.90;;;;;;5008864;28;20030;-65
2021/07/12 04:43:25;;;;;;;4.82;1.50;;;14.30;74.90;;;;;;5011618;28;20021;-66
2021/07/12 04:45:52;;;;;;;2.80;1.00;;;14.20;74.80;;;;;;5013973;28;20053;-66
2021/07/12 04:48:18;;;;;;;0.93;0.70;;;14.30;74.90;;;;;;5012670;28;20104;-67
2021/07/12 04:50:44;;;;;;;1.42;1.05;;;14.30;74.90;;;;;;5009375;28;20022;-67
2021/07/12 04:53:11;;;;;;;3.00;1.48;;;14.30;74.90;;;;;;5009674;28;20025;-67
2021/07/12 04:55:37;;;;;;;2.42;1.08;;;14.30;74.80;;;;;;5010966;28;20013;-66
2021/07/12 04:58:04;;;;;;;4.38;0.77;;;14.30;74.90;;;;;;5011863;28;20029;-66
2021/07/12 05:00:32;;;;;;;3.80;1.13;;;14.30;75.00;;;;;;5012162;28;20038;-67
2021/07/12 05:02:59;;;;;;;2.65;0.60;;;14.30;74.90;;;;;;5011423;28;20538;-66
2021/07/12 05:05:25;;;;;;;1.85;0.80;;;14.30;74.80;;;;;;5009675;28;20017;-68
2021/07/12 05:07:52;;;;;;;5.07;0.95;;;14.30;74.90;;;;;;5013682;28;20408;-65
2021/07/12 05:10:18;;;;;;;2.08;0.47;;;14.30;74.90;;;;;;5009652;28;20048;-67
2021/07/12 05:12:45;;;;;;;2.70;1.10;;;14.30;74.90;;;;;;5009789;28;20025;-66
2021/07/12 05:15:12;;;;;;;7.32;5.60;;;14.30;74.80;;;;;;5009037;28;20025;-69
2021/07/12 05:17:39;;;;;;;5.85;3.75;;;14.30;74.90;;;;;;5010720;28;20139;-67
2021/07/12 05:20:06;;;;;;;5.43;3.75;;;14.30;74.90;;;;;;5008362;28;20083;-67
2021/07/12 05:22:33;;;;;;;5.63;3.33;;;14.30;74.80;;;;;;5010223;28;20057;-68
2021/07/12 05:25:00;;;;;;;3.83;2.13;;;14.30;74.80;;;;;;5010164;28;20022;-66
2021/07/12 05:27:27;;;;;;;3.58;1.85;;;14.30;74.70;;;;;;5012713;28;20028;-66
2021/07/12 05:29:53;;;;;;;4.07;1.30;;;14.30;74.70;;;;;;5012074;28;20030;-66
2021/07/12 05:32:20;;;;;;;3.85;1.67;;;14.30;74.70;;;;;;5008859;28;20025;-66
2021/07/12 05:34:46;;;;;;;3.88;1.40;;;14.30;74.70;;;;;;5010883;28;20040;-66
2021/07/12 05:37:13;;;;;;;3.25;1.30;;;14.20;74.60;;;;;;5013323;28;20092;-66
2021/07/12 05:39:39;;;;;;;2.90;0.85;;;14.30;74.70;;;;;;5010460;28;20026;-67
2021/07/12 05:42:06;;;;;;;2.40;1.30;;;14.30;74.70;;;;;;5009691;28;20045;-66
2021/07/12 05:44:32;;;;;;;3.55;1.10;;;14.30;74.70;;;;;;5009724;28;20608;-66
2021/07/12 05:46:59;;;;;;;1.90;1.20;;;14.20;74.60;;;;;;5011216;28;20037;-66
2021/07/12 05:49:25;;;;;;;2.72;0.82;;;14.30;74.70;;;;;;5008768;28;20029;-66
2021/07/12 05:51:52;;;;;;;2.90;0.80;;;14.20;74.70;;;;;;5009534;28;20032;-66
2021/07/12 05:54:19;;;;;;;1.05;0.60;;;14.30;74.70;;;;;;5007956;28;20054;-66
2021/07/12 05:56:45;;;;;;;1.08;0.55;;;14.30;74.80;;;;;;5009136;28;20111;-66
2021/07/12 05:59:11;;;;;;;1.65;0.70;;;14.30;74.80;;;;;;5009277;28;20018;-67
2021/07/12 06:01:38;;;;;;;3.50;0.85;;;14.20;74.80;;;;;;5010687;28;20163;-66
2021/07/12 06:04:04;;;;;;;4.10;1.05;;;14.20;74.90;;;;;;5010034;28;20030;-68
2021/07/12 06:06:31;;;;;;;2.58;0.70;;;14.30;75.10;;;;;;5009211;28;20026;-66
2021/07/12 06:08:57;;;;;;;4.65;2.22;;;14.30;75.20;;;;;;5002035;28;20110;-66
2021/07/12 06:11:24;;;;;;;7.13;4.20;;;14.20;75.30;;;;;;5007286;28;20029;-67
2021/07/12 06:13:51;;;;;;;8.85;4.40;;;14.20;75.50;;;;;;5011768;28;20038;-67
2021/07/12 06:16:17;;;;;;;4.90;3.08;;;14.20;75.60;;;;;;5008077;28;20028;-67
2021/07/12 06:18:44;;;;;;;3.45;2.53;;;14.20;75.60;;;;;;5007245;28;20049;-67
2021/07/12 06:21:10;;;;;;;3.50;2.47;;;14.20;75.70;;;;;;5008744;28;20045;-68
2021/07/12 06:23:40;;;;;;;3.90;2.42;;;14.20;75.80;;;;;;5007412;28;20041;-66
2021/07/12 06:26:06;;;;;;;4.97;2.88;;;14.20;75.90;;;;;;5008889;28;20079;-66
2021/07/12 06:28:32;;;;;;;2.53;1.10;;;14.20;76.00;;;;;;5006783;28;20099;-67
2021/07/12 06:30:59;;;;;;;2.38;1.70;;;14.20;76.00;;;;;;5007557;28;20036;-66
2021/07/12 06:33:28;;;;;;;2.35;0.82;;;14.20;76.10;;;;;;5008571;28;20034;-66
2021/07/12 06:35:56;;;;;;;2.50;1.35;;;14.20;76.20;;;;;;5005902;28;20022;-67
2021/07/12 06:38:22;;;;;;;4.32;0.77;;;14.20;76.20;;;;;;5008630;28;20045;-67
2021/07/12 06:40:49;;;;;;;4.70;1.00;;;14.20;76.30;;;;;;5007289;28;20029;-66
2021/07/12 06:43:15;;;;;;;1.90;0.93;;;14.20;76.30;;;;;;5000981;28;20018;-66
2021/07/12 06:45:43;;;;;;;3.35;0.75;;;14.20;76.30;;;;;;5006378;28;20030;-66
2021/07/12 06:48:10;;;;;;;2.03;0.70;;;14.20;76.30;;;;;;5007975;28;20025;-66
2021/07/12 06:50:36;;;;;;;2.95;1.05;;;14.20;76.30;;;;;;5021386;28;20485;-66
2021/07/12 06:53:03;;;;;;;3.97;0.60;;;14.30;76.50;;;;;;5007503;28;20053;-67
2021/07/12 06:55:29;;;;;;;2.70;0.50;;;14.20;76.50;;;;;;5006255;28;20473;-66
2021/07/12 06:57:56;;;;;;;1.58;0.73;;;14.30;76.60;;;;;;5007343;28;20483;-66
2021/07/12 07:00:23;;;;;;;2.45;1.25;;;14.20;76.60;;;;;;5006963;28;20034;-66
2021/07/12 07:02:49;;;;;;;6.18;0.80;;;14.20;76.60;;;;;;5007862;28;20396;-66
2021/07/12 07:05:16;;;;;;;5.80;2.90;;;14.20;76.60;;;;;;5011652;28;20030;-72
2021/07/12 07:07:42;;;;;;;6.35;2.88;;;14.20;76.80;;;;;;5013734;28;20093;-66
2021/07/12 07:10:09;;;;;;;2.55;2.00;;;14.20;76.90;;;;;;5016071;28;20034;-66
2021/07/12 07:12:36;;;;;;;6.32;3.03;;;14.20;77.00;;;;;;5013789;28;20025;-67
2021/07/12 07:15:03;;;;;;;5.35;2.13;;;14.20;77.00;;;;;;5013028;28;20026;-66
2021/07/12 07:17:30;;;;;;;5.97;2.28;;;14.30;77.10;;;;;;5012084;28;20040;-66
2021/07/12 07:19:57;;;;;;;3.45;1.45;;;14.30;77.20;;;;;;5011015;28;20481;-66
2021/07/12 07:22:23;;;;;;;1.90;1.40;;;14.20;77.30;;;;;;5016489;28;20377;-66
2021/07/12 07:24:50;;;;;;;4.70;1.55;;;14.20;77.30;;;;;;5010773;28;20021;-66
2021/07/12 07:27:17;;;;;;;4.25;1.38;;;14.30;77.40;;;;;;5010887;28;20099;-65
2021/07/12 07:29:45;;;;;;;4.97;1.40;;;14.30;77.50;;;;;;5010158;28;20025;-65
2021/07/12 07:32:12;;;;;;;2.03;1.33;;;14.30;77.60;;;;;;5012791;28;20022;-66
2021/07/12 07:34:39;;;;;;;2.40;1.77;;;14.30;77.70;;;;;;5013231;28;20024;-66
2021/07/12 07:37:06;;;;;;;8.48;5.45;;;14.30;77.90;;;;;;5014631;28;20028;-65
2021/07/12 07:39:33;;;;;;;6.85;4.30;;;14.20;78.10;;;;;;5013009;28;20120;-65
2021/07/12 07:42:00;;;;;;;9.63;5.25;;;14.20;78.70;;;;;;5012708;28;20212;-66
2021/07/12 07:44:26;;;;;;;3.78;2.13;;;14.30;79.10;;;;;;5013874;28;20033;-66
2021/07/12 07:46:53;;;;;;;38.50;28.85;;;14.30;79.40;;;;;;5012745;28;20143;-68
2021/07/12 07:49:20;;;;;;;8.43;2.83;;;14.20;81.20;;;;;;5012749;28;20028;-67
2021/07/12 07:51:46;;;;;;;6.18;2.15;;;14.10;82.10;;;;;;5012360;28;20032;-66
2021/07/12 07:54:13;;;;;;;8.95;2.08;;;14.10;83.40;;;;;;5012631;28;20497;-66
2021/07/12 07:56:40;;;;;;;9.45;2.30;;;13.90;83.90;;;;;;5014110;28;20026;-66
2021/07/12 07:59:07;;;;;;;10.13;2.55;;;13.90;85.00;;;;;;5012831;28;20384;-66
2021/07/12 08:01:33;;;;;;;7.57;1.88;;;13.80;86.20;;;;;;5014080;28;20041;-66
2021/07/12 08:04:00;;;;;;;7.45;2.80;;;13.80;86.30;;;;;;5011603;28;20043;-65
2021/07/12 08:06:27;;;;;;;7.38;1.75;;;13.80;87.00;;;;;;5012430;28;20018;-66
2021/07/12 08:08:55;;;;;;;8.27;2.63;;;13.70;87.20;;;;;;5011052;28;20105;-65
2021/07/12 08:11:21;;;;;;;9.98;2.67;;;13.60;87.70;;;;;;5013916;28;20022;-66
2021/07/12 08:13:48;;;;;;;4.20;1.85;;;13.70;88.20;;;;;;5012284;28;20022;-66
2021/07/12 08:16:15;;;;;;;6.43;1.85;;;13.60;89.30;;;;;;5009939;28;20101;-65
2021/07/12 08:18:41;;;;;;;6.20;2.10;;;13.60;88.80;;;;;;5012644;28;20038;-66
2021/07/12 08:21:10;;;;;;;4.38;1.95;;;13.60;88.90;;;;;;5011379;28;20481;-66
2021/07/12 08:23:39;;;;;;;5.38;1.60;;;13.60;88.90;;;;;;5012961;28;20024;-66
2021/07/12 08:26:06;;;;;;;5.50;2.35;;;13.60;88.80;;;;;;5011889;28;20522;-66
2021/07/12 08:28:33;;;;;;;6.93;2.63;;;13.60;88.80;;;;;;5013538;28;20113;-65
2021/07/12 08:30:59;;;;;;;8.38;1.65;;;13.60;88.90;;;;;;5013335;28;20018;-66
2021/07/12 08:33:26;;;;;;;2.22;1.33;;;13.60;88.90;;;;;;5010874;28;20116;-66
2021/07/12 08:35:52;;;;;;;5.72;1.38;;;13.60;89.70;;;;;;5011801;28;20022;-65
2021/07/12 08:38:19;;;;;;;6.55;1.50;;;13.60;89.60;;;;;;5011109;28;20018;-66
2021/07/12 08:40:45;;;;;;;6.32;2.13;;;13.60;89.90;;;;;;5012331;28;20030;-66
2021/07/12 08:43:14;;;;;;;6.15;1.80;;;13.60;89.70;;;;;;5013894;28;20026;-66
2021/07/12 08:45:40;;;;;;;4.72;1.70;;;13.60;89.80;;;;;;5012572;28;20080;-65
2021/07/12 08:48:07;;;;;;;6.60;1.85;;;13.60;89.90;;;;;;5011694;28;20164;-65
2021/07/12 08:50:34;;;;;;;8.38;4.28;;;13.60;90.00;;;;;;5012621;28;20018;-65
2021/07/12 08:53:00;;;;;;;8.80;2.90;;;13.50;89.90;;;;;;5011905;28;20025;-66
2021/07/12 08:55:27;;;;;;;5.78;2.15;;;13.50;88.60;;;;;;5010998;28;20017;-65
2021/07/12 08:58:01;;;;;;;8.85;3.10;;;13.40;88.60;;;;;;5012410;28;20109;-67
2021/07/12 09:00:50;;;;;;;8.98;2.95;;;13.30;89.00;;;;;;5009571;28;20041;-66
2021/07/12 09:03:20;;;;;;;10.32;2.55;;;13.30;89.60;;;;;;5011459;28;20473;-65
2021/07/12 09:05:59;;;;;;;9.95;3.80;;;13.20;90.00;;;;;;5011278;28;20137;-66
2021/07/12 09:08:45;;;;;;;13.55;3.70;;;13.20;90.10;;;;;;5009781;28;20097;-66
2021/07/12 09:11:11;;;;;;;;;;;13.30;90.50;;;;;;5012463;28;20120;-66
2021/07/12 09:13:48;;;;;;;;;;;13.20;90.40;;;;;;5011148;28;19928;-66
2021/07/12 09:16:27;;;;;;;;;;;13.20;90.10;;;;;;5011643;28;19906;-66
2021/07/12 09:19:12;;;;;;;8.27;2.97;;;13.10;90.30;;;;;;5010403;28;19964;-66
2021/07/12 09:22:04;;;;;;;7.82;2.50;;;13.10;90.60;;;;;;5011089;28;20033;-67
2021/07/12 09:24:35;;;;;;;8.52;2.03;;;13.00;90.30;;;;;;5011438;28;20028;-65
2021/07/12 09:27:03;;;;;;;3.63;1.90;;;12.90;90.30;;;;;;5013624;28;20048;-66
2021/07/12 09:29:36;;;;;;;5.75;2.83;;;12.90;90.40;;;;;;5010542;28;20429;-66
2021/07/12 09:32:06;;;;;;;9.65;2.63;;;12.90;90.50;;;;;;5011561;28;20452;-66
2021/07/12 09:34:32;;;;;;;9.85;2.63;;;12.90;90.80;;;;;;5009615;28;20022;-66
2021/07/12 09:36:59;;;;;;;8.02;3.03;;;12.90;90.90;;;;;;5011166;28;20049;-66
2021/07/12 09:39:32;;;;;;;11.38;2.67;;;12.90;91.00;;;;;;5009814;28;20143;-65
2021/07/12 09:42:05;;;;;;;11.85;3.03;;;12.80;91.10;;;;;;5008258;28;20030;-66
2021/07/12 09:44:34;;;;;;;12.10;4.15;;;12.80;91.20;;;;;;5011075;28;20053;-66
2021/07/12 09:47:09;;;;;;;6.32;2.50;;;12.80;91.40;;;;;;5008171;28;20018;-66
2021/07/12 09:49:37;;;;;;;12.57;3.10;;;12.80;91.30;;;;;;5010826;28;20077;-66
2021/07/12 09:52:10;;;;;;;6.93;2.13;;;12.80;91.40;;;;;;5009876;28;20030;-65
2021/07/12 09:54:39;;;;;;;12.13;3.15;;;12.80;91.30;;;;;;5010721;28;20033;-66
2021/07/12 09:57:08;;;;;;;9.48;2.47;;;12.90;91.40;;;;;;5008967;28;20468;-66
2021/07/12 09:59:35;;;;;;;5.50;2.05;;;13.00;91.30;;;;;;5009863;28;20036;-66
2021/07/12 10:02:04;;;;;;;15.82;3.95;;;13.00;91.20;;;;;;5011385;28;20108;-65
2021/07/12 10:04:30;;;;;;;9.43;3.20;;;13.10;91.20;;;;;;5010262;28;20579;-66
2021/07/12 10:06:57;;;;;;;4.35;1.55;;;13.10;91.40;;;;;;5011495;28;20026;-65
2021/07/12 10:09:24;;;;;;;4.70;1.58;;;13.10;91.30;;;;;;5009167;28;20073;-66
2021/07/12 10:11:54;;;;;;;5.22;2.13;;;13.20;91.30;;;;;;5010354;28;20026;-66
2021/07/12 10:14:23;;;;;;;4.50;2.22;;;13.30;91.30;;;;;;5009696;28;20029;-66
2021/07/12 10:16:50;;;;;;;3.33;2.08;;;13.30;91.20;;;;;;5010091;28;20384;-66
2021/07/12 10:19:17;;;;;;;3.33;1.38;;;13.30;90.90;;;;;;5010901;28;20041;-65
2021/07/12 10:21:50;;;;;;;11.30;1.55;;;13.40;90.80;;;;;;5008488;28;20058;-66
2021/07/12 10:24:24;;;;;;;8.13;1.60;;;13.30;90.10;;;;;;5011945;28;20037;-66
2021/07/12 10:26:59;;;;;;;6.07;1.80;;;13.30;90.00;;;;;;5007911;28;20010;-65
2021/07/12 10:29:32;;;;;;;2.40;1.00;;;13.40;89.80;;;;;;5011248;28;20025;-65
2021/07/12 10:32:20;;;;;;;3.45;0.70;;;13.40;90.00;;;;;;5007973;28;20072;-65
2021/07/12 10:34:55;;;;;;;5.57;1.42;;;13.40;90.10;;;;;;5007207;28;20100;-65
2021/07/12 10:37:47;;;;;;;;;;;13.40;90.20;;;;;;5007037;28;20021;-66
2021/07/12 10:40:18;;;;;;;5.75;1.95;;;13.40;90.10;;;;;;5006536;28;19917;-66
2021/07/12 10:42:46;;;;;;;1.70;1.30;;;13.40;89.60;;;;;;5007817;28;20022;-65
2021/07/12 10:45:33;;;;;;;7.40;2.08;;;13.40;89.50;;;;;;5008341;28;20033;-65
2021/07/12 10:48:01;;;;;;;3.00;1.98;;;13.40;89.70;;;;;;5005953;28;20422;-65
2021/07/12 10:50:38;;;;;;;4.55;2.47;;;13.50;90.00;;;;;;5006733;28;20501;-65
2021/07/12 10:53:24;;;;;;;3.28;2.40;;;13.50;90.30;;;;;;5006663;28;20026;-65
2021/07/12 10:56:08;;;;;;;3.58;2.20;;;13.40;90.20;;;;;;5006655;28;20022;-66
2021/07/12 10:58:43;;;;;;;6.22;3.88;;;13.40;90.20;;;;;;5006964;28;20362;-66
2021/07/12 11:01:14;;;;;;;6.20;3.00;;;13.40;90.10;;;;;;5008156;28;20130;-65
2021/07/12 11:03:43;;;;;;;4.55;2.72;;;13.40;90.10;;;;;;5007711;28;20022;-65
2021/07/12 11:06:15;;;;;;;3.55;2.53;;;13.40;90.10;;;;;;5006941;28;20022;-66
2021/07/12 11:08:46;;;;;;;2.45;2.08;;;13.40;90.20;;;;;;5007921;28;20477;-65
2021/07/12 11:11:19;;;;;;;2.80;2.45;;;13.40;90.30;;;;;;5009637;28;20433;-66
2021/07/12 11:14:00;;;;;;;2.38;1.95;;;13.40;90.40;;;;;;5007194;28;20037;-66
2021/07/12 11:16:47;;;;;;;3.08;1.85;;;13.40;90.80;;;;;;5008714;28;20496;-65
2021/07/12 11:19:32;;;;;;;2.75;1.60;;;13.40;90.40;;;;;;5007063;28;20038;-66
2021/07/12 11:22:14;;;;;;;5.32;2.67;;;13.40;90.20;;;;;;5009167;28;20040;-66
2021/07/12 11:25:00;;;;;;;4.85;3.13;;;13.40;90.00;;;;;;5009138;28;20076;-66
2021/07/12 11:27:40;;;;;;;4.90;2.13;;;13.40;89.70;;;;;;5008359;28;20041;-65
2021/07/12 11:30:28;;;;;;;4.45;2.33;;;13.40;89.80;;;;;;5009660;28;20408;-66
2021/07/12 11:32:55;;;;;;;77.90;55.28;;;13.40;90.10;;;;;;5005520;28;20080;-64
2021/07/12 11:35:22;;;;;;;44.83;31.48;;;13.40;90.20;;;;;;4998690;28;20032;-64
2021/07/12 11:37:49;;;;;;;12.88;8.38;;;13.40;90.00;;;;;;5005518;28;20080;-64
2021/07/12 11:40:15;;;;;;;7.20;3.28;;;13.40;90.00;;;;;;5008504;28;20080;-64
2021/07/12 11:42:43;;;;;;;5.00;2.90;;;13.40;90.20;;;;;;5006581;28;20145;-64
2021/07/12 11:45:14;;;;;;;1.75;1.52;;;13.50;90.20;;;;;;5006128;28;21757;-64
2021/07/12 11:47:42;;;;;;;4.53;1.70;;;13.50;89.70;;;;;;5006728;28;20589;-64
2021/07/12 11:50:11;;;;;;;2.63;1.85;;;13.50;89.40;;;;;;5008543;28;20136;-64
2021/07/12 11:52:46;;;;;;;6.43;1.80;;;13.50;89.40;;;;;;5010394;28;20014;-65
2021/07/12 11:55:27;;;;;;;1.95;1.55;;;13.50;89.70;;;;;;5010565;28;20038;-65
2021/07/12 11:58:00;;;;;;;5.40;2.90;;;13.50;90.00;;;;;;5008323;28;20374;-64
2021/07/12 12:00:32;;;;;;;2.35;1.10;;;13.40;89.70;;;;;;5010211;28;20402;-64
2021/07/12 12:03:10;;;;;;;2.92;1.65;;;13.50;90.00;;;;;;5010794;28;20110;-64
2021/07/12 12:05:39;;;;;;;4.75;2.30;;;13.50;90.00;;;;;;5010577;28;20107;-64
2021/07/12 12:08:07;;;;;;;4.25;1.60;;;13.50;90.10;;;;;;5012632;28;20626;-64
2021/07/12 12:10:38;;;;;;;2.63;1.85;;;13.60;90.00;;;;;;5009680;28;20026;-64
2021/07/12 12:13:13;;;;;;;3.55;2.80;;;13.50;90.00;;;;;;5011186;28;20152;-65
2021/07/12 12:15:42;;;;;;;8.55;6.00;;;13.50;89.40;;;;;;5011626;28;20507;-65
2021/07/12 12:18:12;;;;;;;45.78;34.33;;;13.50;88.50;;;;;;5010919;28;20489;-65
2021/07/12 12:21:06;;;;;;;12.23;7.03;;;13.50;88.20;;;;;;5014008;28;20026;-65
2021/07/12 12:23:33;;;;;;;5.82;1.70;;;13.60;89.00;;;;;;5012296;28;20034;-65
2021/07/12 12:26:13;;;;;;;3.05;1.77;;;13.60;88.40;;;;;;5011234;28;20022;-65
2021/07/12 12:28:56;;;;;;;4.07;1.70;;;13.60;88.10;;;;;;5011399;28;20065;-66
2021/07/12 12:31:28;;;;;;;2.33;1.38;;;13.60;88.40;;;;;;5008269;28;20026;-66
2021/07/12 12:34:07;;;;;;;3.45;1.70;;;13.60;89.20;;;;;;5008005;28;20056;-68
2021/07/12 12:36:39;;;;;;;5.07;1.65;;;13.60;89.40;;;;;;5007632;28;20115;-66
2021/07/12 12:39:12;;;;;;;3.50;1.88;;;13.60;89.40;;;;;;5008368;28;20026;-65
2021/07/12 12:41:52;;;;;;;2.63;1.45;;;13.70;90.00;;;;;;5006807;28;20660;-66
2021/07/12 12:44:22;;;;;;;4.38;1.50;;;13.70;90.00;;;;;;5007288;28;20020;-65
2021/07/12 12:46:50;;;;;;;4.07;1.40;;;13.70;89.60;;;;;;5007887;28;20020;-66
2021/07/12 12:49:30;;;;;;;5.63;1.75;;;13.70;89.50;;;;;;5021975;28;20038;-65
2021/07/12 12:51:58;;;;;;;4.38;2.08;;;13.70;89.60;;;;;;5007620;28;20800;-65
2021/07/12 12:54:40;;;;;;;2.97;1.75;;;13.70;89.50;;;;;;5007514;28;20017;-64
2021/07/12 12:57:08;;;;;;;4.07;2.10;;;13.70;89.20;;;;;;5007207;28;20046;-65
2021/07/12 12:59:35;;;;;;;4.82;1.98;;;13.80;88.90;;;;;;5008135;28;20401;-65
2021/07/12 13:02:05;;;;;;;7.13;2.08;;;13.80;88.60;;;;;;5006170;28;20038;-66
2021/07/12 13:04:49;;;;;;;6.47;1.80;;;13.80;88.70;;;;;;5010283;28;20113;-66
2021/07/12 13:07:16;;;;;;;3.95;1.50;;;13.80;89.20;;;;;;5008641;28;20128;-65